sensor_id;sensor_type;location;lat;lon;timestamp;temperature;humidity
34815;DHT22;21030;53.912;15.214;2023-07-16T00:00:26;43.90;23.20
34815;DHT22;21030;53.912;15.214;2023-07-16T00:02:53;44.10;23.10
34815;DHT22;21030;53.912;15.214;2023-07-16T00:05:21;44.10;22.80
34815;DHT22;21030;53.912;15.214;2023-07-16T00:07:48;44.00;22.90
34815;DHT22;21030;53.912;15.214;2023-07-16T00:10:15;43.50;23.30
34815;DHT22;21030;53.912;15.214;2023-07-16T00:12:43;43.30;23.30
34815;DHT22;21030;53.912;15.214;2023-07-16T00:15:10;43.10;23.50
34815;DHT22;21030;53.912;15.214;2023-07-16T00:17:37;42.90;23.50
34815;DHT22;21030;53.912;15.214;2023-07-16T00:20:04;42.60;23.80
34815;DHT22;21030;53.912;15.214;2023-07-16T00:22:32;42.40;23.80
34815;DHT22;21030;53.912;15.214;2023-07-16T00:25:00;42.50;24.20
34815;DHT22;21030;53.912;15.214;2023-07-16T00:27:27;42.10;24.50
34815;DHT22;21030;53.912;15.214;2023-07-16T00:29:54;41.50;25.20
34815;DHT22;21030;53.912;15.214;2023-07-16T00:32:22;41.30;25.80
34815;DHT22;21030;53.912;15.214;2023-07-16T00:34:49;41.60;25.80
34815;DHT22;21030;53.912;15.214;2023-07-16T00:37:16;42.00;25.60
34815;DHT22;21030;53.912;15.214;2023-07-16T00:39:43;42.20;25.60
34815;DHT22;21030;53.912;15.214;2023-07-16T00:42:10;42.40;25.60
34815;DHT22;21030;53.912;15.214;2023-07-16T00:44:37;42.70;25.60
34815;DHT22;21030;53.912;15.214;2023-07-16T00:47:04;42.60;25.60
34815;DHT22;21030;53.912;15.214;2023-07-16T00:49:31;42.80;25.30
34815;DHT22;21030;53.912;15.214;2023-07-16T00:51:59;42.60;25.10
34815;DHT22;21030;53.912;15.214;2023-07-16T00:54:28;42.20;25.50
34815;DHT22;21030;53.912;15.214;2023-07-16T00:56:56;41.90;25.80
34815;DHT22;21030;53.912;15.214;2023-07-16T00:59:23;41.50;26.40
34815;DHT22;21030;53.912;15.214;2023-07-16T01:01:50;41.10;26.50
34815;DHT22;21030;53.912;15.214;2023-07-16T01:04:17;41.60;26.60
34815;DHT22;21030;53.912;15.214;2023-07-16T01:06:48;42.60;26.30
34815;DHT22;21030;53.912;15.214;2023-07-16T01:09:19;43.10;25.80
34815;DHT22;21030;53.912;15.214;2023-07-16T01:11:47;43.50;25.50
34815;DHT22;21030;53.912;15.214;2023-07-16T01:14:17;43.80;25.20
34815;DHT22;21030;53.912;15.214;2023-07-16T01:16:46;44.00;24.90
34815;DHT22;21030;53.912;15.214;2023-07-16T01:19:13;43.70;25.00
34815;DHT22;21030;53.912;15.214;2023-07-16T01:21:51;43.70;25.40
34815;DHT22;21030;53.912;15.214;2023-07-16T01:30:08;42.50;26.40
34815;DHT22;21030;53.912;15.214;2023-07-16T01:32:38;42.00;26.70
34815;DHT22;21030;53.912;15.214;2023-07-16T01:35:07;41.90;26.80
34815;DHT22;21030;53.912;15.214;2023-07-16T01:37:35;41.80;27.10
34815;DHT22;21030;53.912;15.214;2023-07-16T01:40:02;41.50;28.40
34815;DHT22;21030;53.912;15.214;2023-07-16T01:42:30;41.70;28.60
34815;DHT22;21030;53.912;15.214;2023-07-16T01:44:57;41.90;28.70
34815;DHT22;21030;53.912;15.214;2023-07-16T01:48:13;40.10;28.50
34815;DHT22;21030;53.912;15.214;2023-07-16T01:50:32;40.20;29.90
34815;DHT22;21030;53.912;15.214;2023-07-16T01:52:59;39.60;29.60
34815;DHT22;21030;53.912;15.214;2023-07-16T01:55:26;40.00;30.30
34815;DHT22;21030;53.912;15.214;2023-07-16T01:57:53;39.70;31.10
34815;DHT22;21030;53.912;15.214;2023-07-16T02:00:20;39.10;31.60
34815;DHT22;21030;53.912;15.214;2023-07-16T02:02:49;39.30;31.50
34815;DHT22;21030;53.912;15.214;2023-07-16T02:05:16;38.90;32.00
34815;DHT22;21030;53.912;15.214;2023-07-16T02:07:43;38.80;32.10
34815;DHT22;21030;53.912;15.214;2023-07-16T02:10:10;39.00;31.70
34815;DHT22;21030;53.912;15.214;2023-07-16T02:12:37;39.10;30.80
34815;DHT22;21030;53.912;15.214;2023-07-16T02:15:05;38.90;31.10
34815;DHT22;21030;53.912;15.214;2023-07-16T02:17:32;38.90;31.20
34815;DHT22;21030;53.912;15.214;2023-07-16T02:19:59;38.50;31.60
34815;DHT22;21030;53.912;15.214;2023-07-16T02:22:27;38.10;32.10
34815;DHT22;21030;53.912;15.214;2023-07-16T02:24:54;37.50;32.40
34815;DHT22;21030;53.912;15.214;2023-07-16T02:27:21;38.40;31.80
34815;DHT22;21030;53.912;15.214;2023-07-16T02:29:48;39.10;31.20
34815;DHT22;21030;53.912;15.214;2023-07-16T02:32:15;40.00;30.90
34815;DHT22;21030;53.912;15.214;2023-07-16T02:34:42;40.40;30.40
34815;DHT22;21030;53.912;15.214;2023-07-16T02:37:09;41.00;29.60
34815;DHT22;21030;53.912;15.214;2023-07-16T02:39:36;41.20;29.40
34815;DHT22;21030;53.912;15.214;2023-07-16T02:42:03;41.30;28.80
34815;DHT22;21030;53.912;15.214;2023-07-16T02:44:30;40.70;29.20
34815;DHT22;21030;53.912;15.214;2023-07-16T02:46:57;39.80;30.00
34815;DHT22;21030;53.912;15.214;2023-07-16T02:49:24;38.60;31.50
34815;DHT22;21030;53.912;15.214;2023-07-16T02:51:51;37.90;32.20
34815;DHT22;21030;53.912;15.214;2023-07-16T02:54:18;38.10;32.40
34815;DHT22;21030;53.912;15.214;2023-07-16T02:56:45;37.80;32.90
34815;DHT22;21030;53.912;15.214;2023-07-16T02:59:12;37.90;33.80
34815;DHT22;21030;53.912;15.214;2023-07-16T03:01:39;38.10;33.10
34815;DHT22;21030;53.912;15.214;2023-07-16T03:04:06;38.00;32.60
34815;DHT22;21030;53.912;15.214;2023-07-16T03:06:57;38.60;32.40
34815;DHT22;21030;53.912;15.214;2023-07-16T03:09:48;38.80;32.00
34815;DHT22;21030;53.912;15.214;2023-07-16T09:30:34;48.10;17.00
34815;DHT22;21030;53.912;15.214;2023-07-16T09:35:42;47.50;18.20
34815;DHT22;21030;53.912;15.214;2023-07-16T09:38:09;46.40;17.90
34815;DHT22;21030;53.912;15.214;2023-07-16T09:40:37;46.50;18.60
34815;DHT22;21030;53.912;15.214;2023-07-16T09:43:06;46.90;18.70
34815;DHT22;21030;53.912;15.214;2023-07-16T09:45:33;47.30;18.20
34815;DHT22;21030;53.912;15.214;2023-07-16T09:48:01;47.60;18.40
34815;DHT22;21030;53.912;15.214;2023-07-16T09:50:30;46.70;17.50
34815;DHT22;21030;53.912;15.214;2023-07-16T09:52:58;46.90;18.60
34815;DHT22;21030;53.912;15.214;2023-07-16T09:55:25;46.90;18.40
34815;DHT22;21030;53.912;15.214;2023-07-16T09:57:56;47.30;19.10
34815;DHT22;21030;53.912;15.214;2023-07-16T10:00:25;47.80;18.60
34815;DHT22;21030;53.912;15.214;2023-07-16T10:02:53;47.90;18.80
34815;DHT22;21030;53.912;15.214;2023-07-16T10:05:25;48.60;18.50
34815;DHT22;21030;53.912;15.214;2023-07-16T10:08:01;49.40;18.10
34815;DHT22;21030;53.912;15.214;2023-07-16T10:13:07;50.60;17.10
34815;DHT22;21030;53.912;15.214;2023-07-16T10:15:38;51.40;17.00
34815;DHT22;21030;53.912;15.214;2023-07-16T10:18:05;52.10;16.50
34815;DHT22;21030;53.912;15.214;2023-07-16T10:20:34;52.70;16.20
34815;DHT22;21030;53.912;15.214;2023-07-16T10:23:14;53.10;15.80
34815;DHT22;21030;53.912;15.214;2023-07-16T10:26:01;52.90;15.60
34815;DHT22;21030;53.912;15.214;2023-07-16T10:28:41;51.60;15.90
34815;DHT22;21030;53.912;15.214;2023-07-16T10:31:22;51.40;15.90
34815;DHT22;21030;53.912;15.214;2023-07-16T10:34:03;50.90;16.50
34815;DHT22;21030;53.912;15.214;2023-07-16T10:36:38;51.30;16.40
34815;DHT22;21030;53.912;15.214;2023-07-16T10:39:07;51.50;16.40
34815;DHT22;21030;53.912;15.214;2023-07-16T10:41:34;51.90;16.80
34815;DHT22;21030;53.912;15.214;2023-07-16T10:44:02;52.50;16.10
34815;DHT22;21030;53.912;15.214;2023-07-16T10:46:31;53.20;15.90
34815;DHT22;21030;53.912;15.214;2023-07-16T10:49:00;53.90;15.60
34815;DHT22;21030;53.912;15.214;2023-07-16T10:51:28;54.20;15.30
34815;DHT22;21030;53.912;15.214;2023-07-16T10:53:56;54.70;14.90
34815;DHT22;21030;53.912;15.214;2023-07-16T10:56:24;54.30;14.70
34815;DHT22;21030;53.912;15.214;2023-07-16T10:58:51;54.10;15.10
34815;DHT22;21030;53.912;15.214;2023-07-16T11:01:18;53.80;14.90
34815;DHT22;21030;53.912;15.214;2023-07-16T11:03:46;54.10;15.10
34815;DHT22;21030;53.912;15.214;2023-07-16T11:06:14;54.20;15.10
34815;DHT22;21030;53.912;15.214;2023-07-16T11:08:43;54.80;15.40
34815;DHT22;21030;53.912;15.214;2023-07-16T11:11:09;54.90;15.00
34815;DHT22;21030;53.912;15.214;2023-07-16T11:13:36;54.60;14.70
34815;DHT22;21030;53.912;15.214;2023-07-16T11:16:07;54.20;14.50
34815;DHT22;21030;53.912;15.214;2023-07-16T11:18:35;54.40;14.70
34815;DHT22;21030;53.912;15.214;2023-07-16T11:21:03;54.40;14.80
34815;DHT22;21030;53.912;15.214;2023-07-16T11:23:34;54.60;15.10
34815;DHT22;21030;53.912;15.214;2023-07-16T11:26:04;54.20;15.20
34815;DHT22;21030;53.912;15.214;2023-07-16T11:28:42;53.70;15.20
34815;DHT22;21030;53.912;15.214;2023-07-16T11:31:16;53.40;15.10
34815;DHT22;21030;53.912;15.214;2023-07-16T11:33:45;52.40;15.50
34815;DHT22;21030;53.912;15.214;2023-07-16T11:36:12;52.10;15.90
34815;DHT22;21030;53.912;15.214;2023-07-16T11:38:40;52.00;16.80
34815;DHT22;21030;53.912;15.214;2023-07-16T11:41:07;52.10;16.20
34815;DHT22;21030;53.912;15.214;2023-07-16T11:43:35;52.20;15.80
34815;DHT22;21030;53.912;15.214;2023-07-16T11:46:05;51.30;16.30
34815;DHT22;21030;53.912;15.214;2023-07-16T11:48:32;51.90;16.30
34815;DHT22;21030;53.912;15.214;2023-07-16T11:50:59;51.70;16.30
34815;DHT22;21030;53.912;15.214;2023-07-16T11:53:26;52.40;16.70
34815;DHT22;21030;53.912;15.214;2023-07-16T11:55:53;52.30;16.10
34815;DHT22;21030;53.912;15.214;2023-07-16T11:58:20;52.60;16.10
34815;DHT22;21030;53.912;15.214;2023-07-16T12:00:47;52.60;15.90
34815;DHT22;21030;53.912;15.214;2023-07-16T12:03:14;52.30;16.10
34815;DHT22;21030;53.912;15.214;2023-07-16T12:05:41;52.80;16.30
34815;DHT22;21030;53.912;15.214;2023-07-16T12:08:19;53.40;16.10
34815;DHT22;21030;53.912;15.214;2023-07-16T12:10:46;53.90;15.80
34815;DHT22;21030;53.912;15.214;2023-07-16T12:13:13;54.20;15.40
34815;DHT22;21030;53.912;15.214;2023-07-16T12:15:40;54.50;15.80
34815;DHT22;21030;53.912;15.214;2023-07-16T12:18:10;54.70;15.50
34815;DHT22;21030;53.912;15.214;2023-07-16T12:20:37;54.40;15.40
34815;DHT22;21030;53.912;15.214;2023-07-16T12:23:04;54.20;15.50
34815;DHT22;21030;53.912;15.214;2023-07-16T12:25:33;54.20;15.60
34815;DHT22;21030;53.912;15.214;2023-07-16T12:28:00;54.10;15.50
34815;DHT22;21030;53.912;15.214;2023-07-16T12:30:28;53.80;15.10
34815;DHT22;21030;53.912;15.214;2023-07-16T12:32:56;53.60;15.80
34815;DHT22;21030;53.912;15.214;2023-07-16T12:35:23;53.20;15.90
34815;DHT22;21030;53.912;15.214;2023-07-16T12:37:50;51.80;16.10
34815;DHT22;21030;53.912;15.214;2023-07-16T12:40:17;50.10;16.80
34815;DHT22;21030;53.912;15.214;2023-07-16T12:42:44;50.10;17.40
34815;DHT22;21030;53.912;15.214;2023-07-16T12:45:11;50.10;17.40
34815;DHT22;21030;53.912;15.214;2023-07-16T12:47:38;49.30;17.40
34815;DHT22;21030;53.912;15.214;2023-07-16T12:50:06;48.60;17.80
34815;DHT22;21030;53.912;15.214;2023-07-16T12:52:34;48.40;18.50
34815;DHT22;21030;53.912;15.214;2023-07-16T12:55:01;48.10;18.60
34815;DHT22;21030;53.912;15.214;2023-07-16T12:57:28;47.70;18.70
34815;DHT22;21030;53.912;15.214;2023-07-16T12:59:55;47.90;19.10
34815;DHT22;21030;53.912;15.214;2023-07-16T13:02:22;47.20;18.90
34815;DHT22;21030;53.912;15.214;2023-07-16T13:04:49;46.20;19.30
34815;DHT22;21030;53.912;15.214;2023-07-16T13:07:16;46.20;19.80
34815;DHT22;21030;53.912;15.214;2023-07-16T13:09:43;46.00;20.00
34815;DHT22;21030;53.912;15.214;2023-07-16T13:12:10;46.10;20.10
34815;DHT22;21030;53.912;15.214;2023-07-16T13:14:37;45.90;19.90
34815;DHT22;21030;53.912;15.214;2023-07-16T13:17:04;47.10;19.80
34815;DHT22;21030;53.912;15.214;2023-07-16T13:19:32;47.60;18.70
34815;DHT22;21030;53.912;15.214;2023-07-16T13:21:59;48.30;18.90
34815;DHT22;21030;53.912;15.214;2023-07-16T13:24:26;48.70;18.90
34815;DHT22;21030;53.912;15.214;2023-07-16T13:26:53;49.30;18.30
34815;DHT22;21030;53.912;15.214;2023-07-16T13:29:20;49.90;18.20
34815;DHT22;21030;53.912;15.214;2023-07-16T13:31:48;50.00;18.10
34815;DHT22;21030;53.912;15.214;2023-07-16T13:34:15;49.90;17.80
34815;DHT22;21030;53.912;15.214;2023-07-16T13:36:42;49.50;17.70
34815;DHT22;21030;53.912;15.214;2023-07-16T13:39:09;49.20;17.80
34815;DHT22;21030;53.912;15.214;2023-07-16T13:41:36;50.10;18.40
34815;DHT22;21030;53.912;15.214;2023-07-16T13:44:04;50.90;18.10
34815;DHT22;21030;53.912;15.214;2023-07-16T13:46:31;51.00;17.50
34815;DHT22;21030;53.912;15.214;2023-07-16T13:48:58;50.20;17.70
34815;DHT22;21030;53.912;15.214;2023-07-16T13:51:26;49.80;18.00
34815;DHT22;21030;53.912;15.214;2023-07-16T13:53:54;49.40;18.10
34815;DHT22;21030;53.912;15.214;2023-07-16T13:56:21;49.90;18.20
34815;DHT22;21030;53.912;15.214;2023-07-16T13:58:48;50.10;17.60
34815;DHT22;21030;53.912;15.214;2023-07-16T14:01:15;49.80;17.80
34815;DHT22;21030;53.912;15.214;2023-07-16T14:03:43;49.30;17.80
34815;DHT22;21030;53.912;15.214;2023-07-16T14:06:12;49.20;18.50
34815;DHT22;21030;53.912;15.214;2023-07-16T14:08:39;49.50;18.20
34815;DHT22;21030;53.912;15.214;2023-07-16T14:11:06;49.50;18.20
34815;DHT22;21030;53.912;15.214;2023-07-16T14:13:33;49.80;18.40
34815;DHT22;21030;53.912;15.214;2023-07-16T14:16:00;49.50;18.50
34815;DHT22;21030;53.912;15.214;2023-07-16T14:18:27;48.80;18.70
34815;DHT22;21030;53.912;15.214;2023-07-16T14:20:54;48.30;19.20
34815;DHT22;21030;53.912;15.214;2023-07-16T14:23:21;47.90;18.90
34815;DHT22;21030;53.912;15.214;2023-07-16T14:25:48;47.70;19.90
34815;DHT22;21030;53.912;15.214;2023-07-16T14:28:15;48.00;19.90
34815;DHT22;21030;53.912;15.214;2023-07-16T14:30:42;47.70;19.50
34815;DHT22;21030;53.912;15.214;2023-07-16T14:33:09;46.60;19.80
34815;DHT22;21030;53.912;15.214;2023-07-16T14:35:36;46.00;20.20
34815;DHT22;21030;53.912;15.214;2023-07-16T14:38:04;46.00;20.80
34815;DHT22;21030;53.912;15.214;2023-07-16T14:40:32;46.30;20.50
34815;DHT22;21030;53.912;15.214;2023-07-16T14:42:59;46.60;21.00
34815;DHT22;21030;53.912;15.214;2023-07-16T14:45:26;47.20;20.20
34815;DHT22;21030;53.912;15.214;2023-07-16T14:47:54;47.30;20.00
34815;DHT22;21030;53.912;15.214;2023-07-16T14:50:21;47.70;20.00
34815;DHT22;21030;53.912;15.214;2023-07-16T14:52:48;48.50;19.80
34815;DHT22;21030;53.912;15.214;2023-07-16T14:55:15;48.70;19.40
34815;DHT22;21030;53.912;15.214;2023-07-16T14:57:42;48.70;19.20
34815;DHT22;21030;53.912;15.214;2023-07-16T15:00:10;48.60;19.00
34815;DHT22;21030;53.912;15.214;2023-07-16T15:02:38;48.90;19.00
34815;DHT22;21030;53.912;15.214;2023-07-16T15:05:06;48.80;19.00
34815;DHT22;21030;53.912;15.214;2023-07-16T15:07:35;48.70;18.90
34815;DHT22;21030;53.912;15.214;2023-07-16T15:10:03;48.40;19.10
34815;DHT22;21030;53.912;15.214;2023-07-16T15:12:31;48.40;19.30
34815;DHT22;21030;53.912;15.214;2023-07-16T15:14:58;48.40;19.10
34815;DHT22;21030;53.912;15.214;2023-07-16T15:17:26;48.60;19.60
34815;DHT22;21030;53.912;15.214;2023-07-16T15:19:54;48.40;19.10
34815;DHT22;21030;53.912;15.214;2023-07-16T15:22:21;48.40;18.80
34815;DHT22;21030;53.912;15.214;2023-07-16T15:24:49;48.50;18.70
34815;DHT22;21030;53.912;15.214;2023-07-16T15:27:16;48.50;18.70
34815;DHT22;21030;53.912;15.214;2023-07-16T15:29:43;47.00;19.00
34815;DHT22;21030;53.912;15.214;2023-07-16T15:32:11;46.20;19.50
34815;DHT22;21030;53.912;15.214;2023-07-16T15:34:38;46.20;19.40
34815;DHT22;21030;53.912;15.214;2023-07-16T15:37:05;46.10;19.80
34815;DHT22;21030;53.912;15.214;2023-07-16T15:39:32;46.20;19.90
34815;DHT22;21030;53.912;15.214;2023-07-16T15:42:00;46.40;20.20
34815;DHT22;21030;53.912;15.214;2023-07-16T15:44:27;45.70;19.50
34815;DHT22;21030;53.912;15.214;2023-07-16T15:46:54;45.20;20.20
34815;DHT22;21030;53.912;15.214;2023-07-16T15:49:21;45.20;20.50
34815;DHT22;21030;53.912;15.214;2023-07-16T15:51:48;45.50;20.40
34815;DHT22;21030;53.912;15.214;2023-07-16T15:54:15;45.30;20.10
34815;DHT22;21030;53.912;15.214;2023-07-16T15:56:43;44.70;19.90
34815;DHT22;21030;53.912;15.214;2023-07-16T15:59:10;44.70;19.50
34815;DHT22;21030;53.912;15.214;2023-07-16T16:01:37;44.50;19.50
34815;DHT22;21030;53.912;15.214;2023-07-16T16:04:04;44.20;19.80
34815;DHT22;21030;53.912;15.214;2023-07-16T16:06:32;44.30;19.40
34815;DHT22;21030;53.912;15.214;2023-07-16T16:08:59;44.40;19.70
34815;DHT22;21030;53.912;15.214;2023-07-16T16:11:26;44.20;20.00
34815;DHT22;21030;53.912;15.214;2023-07-16T16:14:06;44.20;20.10
34815;DHT22;21030;53.912;15.214;2023-07-16T16:16:36;44.20;20.20
34815;DHT22;21030;53.912;15.214;2023-07-16T16:19:03;44.70;20.60
34815;DHT22;21030;53.912;15.214;2023-07-16T16:21:30;44.80;19.90
34815;DHT22;21030;53.912;15.214;2023-07-16T16:23:57;43.90;20.00
34815;DHT22;21030;53.912;15.214;2023-07-16T16:26:24;43.70;20.40
34815;DHT22;21030;53.912;15.214;2023-07-16T16:28:52;44.10;20.50
34815;DHT22;21030;53.912;15.214;2023-07-16T16:31:20;43.90;19.90
34815;DHT22;21030;53.912;15.214;2023-07-16T16:33:47;44.30;20.20
34815;DHT22;21030;53.912;15.214;2023-07-16T16:36:14;44.10;19.90
34815;DHT22;21030;53.912;15.214;2023-07-16T16:38:41;43.60;19.90
34815;DHT22;21030;53.912;15.214;2023-07-16T16:41:09;43.70;19.90
34815;DHT22;21030;53.912;15.214;2023-07-16T16:43:36;43.10;19.80
34815;DHT22;21030;53.912;15.214;2023-07-16T16:46:04;43.00;20.20
34815;DHT22;21030;53.912;15.214;2023-07-16T16:48:31;43.20;20.30
34815;DHT22;21030;53.912;15.214;2023-07-16T16:51:01;43.20;20.30
34815;DHT22;21030;53.912;15.214;2023-07-16T16:53:29;43.70;20.60
34815;DHT22;21030;53.912;15.214;2023-07-16T16:55:56;43.30;20.20
34815;DHT22;21030;53.912;15.214;2023-07-16T16:58:24;44.00;20.10
34815;DHT22;21030;53.912;15.214;2023-07-16T17:00:52;43.30;19.90
34815;DHT22;21030;53.912;15.214;2023-07-16T17:03:22;42.90;20.30
34815;DHT22;21030;53.912;15.214;2023-07-16T17:05:50;43.20;20.70
34815;DHT22;21030;53.912;15.214;2023-07-16T17:08:19;42.70;20.20
34815;DHT22;21030;53.912;15.214;2023-07-16T17:10:47;42.40;20.70
34815;DHT22;21030;53.912;15.214;2023-07-16T17:13:14;42.00;20.90
34815;DHT22;21030;53.912;15.214;2023-07-16T17:15:48;42.90;21.30
34815;DHT22;21030;53.912;15.214;2023-07-16T17:18:17;43.70;20.80
34815;DHT22;21030;53.912;15.214;2023-07-16T17:20:44;43.40;20.90
34815;DHT22;21030;53.912;15.214;2023-07-16T17:23:11;43.40;20.60
34815;DHT22;21030;53.912;15.214;2023-07-16T17:25:42;43.40;20.90
34815;DHT22;21030;53.912;15.214;2023-07-16T17:28:12;43.00;20.60
34815;DHT22;21030;53.912;15.214;2023-07-16T17:30:40;42.90;20.70
34815;DHT22;21030;53.912;15.214;2023-07-16T17:33:08;43.20;21.00
34815;DHT22;21030;53.912;15.214;2023-07-16T17:35:36;43.50;20.70
34815;DHT22;21030;53.912;15.214;2023-07-16T17:38:07;43.80;20.70
34815;DHT22;21030;53.912;15.214;2023-07-16T17:40:35;43.60;20.70
34815;DHT22;21030;53.912;15.214;2023-07-16T17:43:01;43.20;20.90
34815;DHT22;21030;53.912;15.214;2023-07-16T17:45:29;43.60;21.10
34815;DHT22;21030;53.912;15.214;2023-07-16T17:47:57;43.70;21.00
34815;DHT22;21030;53.912;15.214;2023-07-16T17:50:25;43.60;20.80
34815;DHT22;21030;53.912;15.214;2023-07-16T17:52:52;43.70;20.90
34815;DHT22;21030;53.912;15.214;2023-07-16T17:55:19;43.50;21.00
34815;DHT22;21030;53.912;15.214;2023-07-16T17:57:46;44.00;20.90
34815;DHT22;21030;53.912;15.214;2023-07-16T18:00:13;43.90;20.80
34815;DHT22;21030;53.912;15.214;2023-07-16T18:02:51;43.70;21.00
34815;DHT22;21030;53.912;15.214;2023-07-16T18:05:19;43.20;20.80
34815;DHT22;21030;53.912;15.214;2023-07-16T18:07:46;43.40;21.20
34815;DHT22;21030;53.912;15.214;2023-07-16T18:10:19;43.40;21.20
34815;DHT22;21030;53.912;15.214;2023-07-16T18:12:49;43.20;20.90
34815;DHT22;21030;53.912;15.214;2023-07-16T18:15:17;43.20;21.20
34815;DHT22;21030;53.912;15.214;2023-07-16T18:17:44;43.10;21.30
34815;DHT22;21030;53.912;15.214;2023-07-16T18:20:13;43.00;21.30
34815;DHT22;21030;53.912;15.214;2023-07-16T18:22:42;42.90;20.90
34815;DHT22;21030;53.912;15.214;2023-07-16T18:25:10;43.20;21.10
34815;DHT22;21030;53.912;15.214;2023-07-16T18:27:37;43.10;20.70
34815;DHT22;21030;53.912;15.214;2023-07-16T18:30:05;43.10;20.80
34815;DHT22;21030;53.912;15.214;2023-07-16T18:32:33;43.30;20.60
34815;DHT22;21030;53.912;15.214;2023-07-16T18:35:00;43.30;20.80
34815;DHT22;21030;53.912;15.214;2023-07-16T18:37:27;43.00;20.50
34815;DHT22;21030;53.912;15.214;2023-07-16T18:39:54;42.30;20.80
34815;DHT22;21030;53.912;15.214;2023-07-16T18:42:23;42.30;21.20
34815;DHT22;21030;53.912;15.214;2023-07-16T18:44:55;42.30;20.90
34815;DHT22;21030;53.912;15.214;2023-07-16T18:47:28;42.90;21.70
34815;DHT22;21030;53.912;15.214;2023-07-16T18:49:56;43.50;21.20
34815;DHT22;21030;53.912;15.214;2023-07-16T18:52:24;43.50;21.30
34815;DHT22;21030;53.912;15.214;2023-07-16T18:54:52;43.90;21.00
34815;DHT22;21030;53.912;15.214;2023-07-16T18:57:19;43.80;21.10
34815;DHT22;21030;53.912;15.214;2023-07-16T18:59:46;43.90;21.00
34815;DHT22;21030;53.912;15.214;2023-07-16T19:02:13;44.00;21.20
34815;DHT22;21030;53.912;15.214;2023-07-16T19:04:42;43.90;21.20
34815;DHT22;21030;53.912;15.214;2023-07-16T19:07:09;43.90;21.60
34815;DHT22;21030;53.912;15.214;2023-07-16T19:09:37;43.90;21.80
34815;DHT22;21030;53.912;15.214;2023-07-16T19:12:04;43.90;21.80
34815;DHT22;21030;53.912;15.214;2023-07-16T19:14:32;43.90;22.00
34815;DHT22;21030;53.912;15.214;2023-07-16T19:17:02;43.70;22.20
34815;DHT22;21030;53.912;15.214;2023-07-16T19:19:30;43.70;22.30
34815;DHT22;21030;53.912;15.214;2023-07-16T19:21:57;43.80;22.30
34815;DHT22;21030;53.912;15.214;2023-07-16T19:24:24;43.80;22.50
34815;DHT22;21030;53.912;15.214;2023-07-16T19:26:51;43.60;22.70
34815;DHT22;21030;53.912;15.214;2023-07-16T19:29:18;43.50;22.80
34815;DHT22;21030;53.912;15.214;2023-07-16T19:31:45;43.40;23.00
34815;DHT22;21030;53.912;15.214;2023-07-16T19:34:12;43.40;23.40
34815;DHT22;21030;53.912;15.214;2023-07-16T19:36:39;43.40;23.30
34815;DHT22;21030;53.912;15.214;2023-07-16T19:39:06;43.40;23.30
34815;DHT22;21030;53.912;15.214;2023-07-16T19:41:34;43.40;23.30
34815;DHT22;21030;53.912;15.214;2023-07-16T19:44:01;43.30;23.70
34815;DHT22;21030;53.912;15.214;2023-07-16T19:46:31;43.20;23.80
34815;DHT22;21030;53.912;15.214;2023-07-16T19:49:01;43.00;23.90
34815;DHT22;21030;53.912;15.214;2023-07-16T19:51:28;43.00;24.10
34815;DHT22;21030;53.912;15.214;2023-07-16T19:53:55;42.80;24.20
34815;DHT22;21030;53.912;15.214;2023-07-16T19:56:23;42.70;24.40
34815;DHT22;21030;53.912;15.214;2023-07-16T19:58:53;42.40;24.60
34815;DHT22;21030;53.912;15.214;2023-07-16T20:01:20;42.40;24.80
34815;DHT22;21030;53.912;15.214;2023-07-16T20:03:50;42.30;24.90
34815;DHT22;21030;53.912;15.214;2023-07-16T20:06:17;42.10;25.00
34815;DHT22;21030;53.912;15.214;2023-07-16T20:08:45;42.10;25.20
34815;DHT22;21030;53.912;15.214;2023-07-16T20:11:15;42.10;25.30
34815;DHT22;21030;53.912;15.214;2023-07-16T20:13:42;42.30;25.20
34815;DHT22;21030;53.912;15.214;2023-07-16T20:16:12;42.10;25.40
34815;DHT22;21030;53.912;15.214;2023-07-16T20:18:39;42.00;25.50
34815;DHT22;21030;53.912;15.214;2023-07-16T20:21:07;42.10;25.60
34815;DHT22;21030;53.912;15.214;2023-07-16T20:23:34;42.00;25.80
34815;DHT22;21030;53.912;15.214;2023-07-16T20:26:01;42.10;25.90
34815;DHT22;21030;53.912;15.214;2023-07-16T20:28:29;42.00;25.90
34815;DHT22;21030;53.912;15.214;2023-07-16T20:30:56;41.90;25.90
34815;DHT22;21030;53.912;15.214;2023-07-16T20:33:25;41.80;26.10
34815;DHT22;21030;53.912;15.214;2023-07-16T20:35:52;41.70;26.10
34815;DHT22;21030;53.912;15.214;2023-07-16T20:38:19;41.70;26.40
34815;DHT22;21030;53.912;15.214;2023-07-16T20:40:46;41.80;26.50
34815;DHT22;21030;53.912;15.214;2023-07-16T20:43:13;41.70;26.40
34815;DHT22;21030;53.912;15.214;2023-07-16T20:45:42;41.70;26.30
34815;DHT22;21030;53.912;15.214;2023-07-16T20:48:13;41.80;26.40
34815;DHT22;21030;53.912;15.214;2023-07-16T20:50:43;41.70;26.40
34815;DHT22;21030;53.912;15.214;2023-07-16T20:53:10;41.60;26.60
34815;DHT22;21030;53.912;15.214;2023-07-16T20:55:38;41.70;26.50
34815;DHT22;21030;53.912;15.214;2023-07-16T20:58:05;41.60;26.60
34815;DHT22;21030;53.912;15.214;2023-07-16T21:00:32;41.60;26.50
34815;DHT22;21030;53.912;15.214;2023-07-16T21:03:03;41.50;26.80
34815;DHT22;21030;53.912;15.214;2023-07-16T21:05:32;41.60;26.70
34815;DHT22;21030;53.912;15.214;2023-07-16T21:07:59;41.60;26.70
34815;DHT22;21030;53.912;15.214;2023-07-16T21:10:27;41.70;26.50
34815;DHT22;21030;53.912;15.214;2023-07-16T21:12:56;41.80;26.50
34815;DHT22;21030;53.912;15.214;2023-07-16T21:15:24;41.60;26.60
34815;DHT22;21030;53.912;15.214;2023-07-16T21:17:53;41.60;26.50
34815;DHT22;21030;53.912;15.214;2023-07-16T21:20:20;41.80;26.30
34815;DHT22;21030;53.912;15.214;2023-07-16T21:22:47;41.90;26.30
34815;DHT22;21030;53.912;15.214;2023-07-16T21:25:15;41.90;26.40
34815;DHT22;21030;53.912;15.214;2023-07-16T21:28:03;41.90;26.30
34815;DHT22;21030;53.912;15.214;2023-07-16T21:30:37;41.80;26.30
34815;DHT22;21030;53.912;15.214;2023-07-16T21:33:05;41.80;26.50
34815;DHT22;21030;53.912;15.214;2023-07-16T21:35:32;41.80;26.30
34815;DHT22;21030;53.912;15.214;2023-07-16T21:37:59;41.90;26.30
34815;DHT22;21030;53.912;15.214;2023-07-16T21:40:26;41.90;26.30
34815;DHT22;21030;53.912;15.214;2023-07-16T21:42:53;41.90;26.20
34815;DHT22;21030;53.912;15.214;2023-07-16T21:45:20;41.90;26.30
34815;DHT22;21030;53.912;15.214;2023-07-16T21:47:48;41.90;26.20
34815;DHT22;21030;53.912;15.214;2023-07-16T21:50:17;41.90;26.30